sensor_id;sensor_type;location;lat;lon;timestamp;pressure;altitude;pressure_sealevel;temperature;humidity
46836;BME280;32573;51.290;6.926;2023-01-15T00:01:23;98614.72;;;7.01;100.00
46836;BME280;32573;51.290;6.926;2023-01-15T00:03:54;98622.47;;;6.97;100.00
46836;BME280;32573;51.290;6.926;2023-01-15T00:06:24;98625.88;;;6.94;100.00
46836;BME280;32573;51.290;6.926;2023-01-15T00:08:53;98612.81;;;6.91;100.00
46836;BME280;32573;51.290;6.926;2023-01-15T00:11:22;98617.09;;;6.87;100.00
46836;BME280;32573;51.290;6.926;2023-01-15T00:13:50;98614.41;;;6.83;100.00
46836;BME280;32573;51.290;6.926;2023-01-15T00:16:21;98630.78;;;6.79;100.00
46836;BME280;32573;51.290;6.926;2023-01-15T00:18:50;98626.47;;;6.78;100.00
46836;BME280;32573;51.290;6.926;2023-01-15T00:21:21;98628.16;;;6.76;100.00
46836;BME280;32573;51.290;6.926;2023-01-15T00:23:50;98637.69;;;6.75;100.00
46836;BME280;32573;51.290;6.926;2023-01-15T00:26:37;98615.97;;;6.72;100.00
46836;BME280;32573;51.290;6.926;2023-01-15T00:29:24;98635.84;;;6.69;100.00
46836;BME280;32573;51.290;6.926;2023-01-15T00:31:55;98647.06;;;6.68;100.00
46836;BME280;32573;51.290;6.926;2023-01-15T00:34:25;98638.41;;;6.66;100.00
46836;BME280;32573;51.290;6.926;2023-01-15T00:36:55;98636.63;;;6.65;100.00
46836;BME280;32573;51.290;6.926;2023-01-15T00:39:24;98646.19;;;6.66;100.00
46836;BME280;32573;51.290;6.926;2023-01-15T00:41:53;98643.59;;;6.66;100.00
46836;BME280;32573;51.290;6.926;2023-01-15T00:44:22;98641.00;;;6.66;100.00
46836;BME280;32573;51.290;6.926;2023-01-15T00:46:51;98624.50;;;6.64;100.00
46836;BME280;32573;51.290;6.926;2023-01-15T00:49:20;98621.00;;;6.64;100.00
46836;BME280;32573;51.290;6.926;2023-01-15T00:51:49;98610.63;;;6.65;100.00
46836;BME280;32573;51.290;6.926;2023-01-15T00:54:19;98601.09;;;6.66;100.00
46836;BME280;32573;51.290;6.926;2023-01-15T00:56:47;98592.44;;;6.65;100.00
46836;BME280;32573;51.290;6.926;2023-01-15T00:59:16;98574.16;;;6.61;100.00
46836;BME280;32573;51.290;6.926;2023-01-15T01:01:44;98575.03;;;6.60;100.00
46836;BME280;32573;51.290;6.926;2023-01-15T01:04:13;98574.13;;;6.58;100.00
46836;BME280;32573;51.290;6.926;2023-01-15T01:06:41;98577.53;;;6.55;100.00
46836;BME280;32573;51.290;6.926;2023-01-15T01:09:11;98591.38;;;6.54;100.00
46836;BME280;32573;51.290;6.926;2023-01-15T01:11:41;98581.81;;;6.53;100.00
46836;BME280;32573;51.290;6.926;2023-01-15T01:14:11;98582.69;;;6.52;100.00
46836;BME280;32573;51.290;6.926;2023-01-15T01:16:40;98565.31;;;6.51;100.00
46836;BME280;32573;51.290;6.926;2023-01-15T01:19:11;98561.84;;;6.49;100.00
46836;BME280;32573;51.290;6.926;2023-01-15T01:21:41;98597.31;;;6.48;100.00
46836;BME280;32573;51.290;6.926;2023-01-15T01:24:11;98615.50;;;6.47;100.00
46836;BME280;32573;51.290;6.926;2023-01-15T01:26:45;98611.13;;;6.46;100.00
46836;BME280;32573;51.290;6.926;2023-01-15T01:29:15;98622.41;;;6.45;100.00
46836;BME280;32573;51.290;6.926;2023-01-15T01:31:44;98623.22;;;6.42;100.00
46836;BME280;32573;51.290;6.926;2023-01-15T01:34:13;98617.97;;;6.41;100.00
46836;BME280;32573;51.290;6.926;2023-01-15T01:36:43;98627.47;;;6.39;100.00
46836;BME280;32573;51.290;6.926;2023-01-15T01:39:13;98631.78;;;6.37;100.00
46836;BME280;32573;51.290;6.926;2023-01-15T01:41:44;98623.06;;;6.35;100.00
46836;BME280;32573;51.290;6.926;2023-01-15T01:47:23;98617.78;;;6.30;100.00
46836;BME280;32573;51.290;6.926;2023-01-15T01:49:54;98618.59;;;6.28;100.00
46836;BME280;32573;51.290;6.926;2023-01-15T01:52:26;98612.53;;;6.27;100.00
46836;BME280;32573;51.290;6.926;2023-01-15T01:54:56;98628.94;;;6.24;100.00
46836;BME280;32573;51.290;6.926;2023-01-15T01:57:27;98637.56;;;6.23;100.00
46836;BME280;32573;51.290;6.926;2023-01-15T01:59:56;98633.19;;;6.21;100.00
46836;BME280;32573;51.290;6.926;2023-01-15T02:02:26;98614.97;;;6.19;100.00
46836;BME280;32573;51.290;6.926;2023-01-15T02:04:55;98624.47;;;6.17;100.00
46836;BME280;32573;51.290;6.926;2023-01-15T02:07:24;98640.97;;;6.19;100.00
46836;BME280;32573;51.290;6.926;2023-01-15T02:09:55;98646.91;;;6.15;100.00
46836;BME280;32573;51.290;6.926;2023-01-15T02:12:27;98658.16;;;6.14;100.00
46836;BME280;32573;51.290;6.926;2023-01-15T02:15:03;98641.69;;;6.14;100.00
46836;BME280;32573;51.290;6.926;2023-01-15T02:17:40;98635.63;;;6.13;100.00
46836;BME280;32573;51.290;6.926;2023-01-15T02:20:20;98635.63;;;6.13;100.00
46836;BME280;32573;51.290;6.926;2023-01-15T02:23:14;98629.56;;;6.13;100.00
46836;BME280;32573;51.290;6.926;2023-01-15T02:29:03;98607.91;;;6.12;100.00
46836;BME280;32573;51.290;6.926;2023-01-15T02:31:37;98603.53;;;6.11;100.00
46836;BME280;32573;51.290;6.926;2023-01-15T02:34:10;98598.34;;;6.11;100.00
46836;BME280;32573;51.290;6.926;2023-01-15T02:36:43;98594.88;;;6.11;100.00
46836;BME280;32573;51.290;6.926;2023-01-15T02:39:23;98593.97;;;6.09;100.00
46836;BME280;32573;51.290;6.926;2023-01-15T02:41:55;98600.06;;;6.09;100.00
46836;BME280;32573;51.290;6.926;2023-01-15T02:44:32;98601.75;;;6.09;100.00
46836;BME280;32573;51.290;6.926;2023-01-15T02:47:04;98595.69;;;6.08;100.00
46836;BME280;32573;51.290;6.926;2023-01-15T02:49:35;98605.25;;;6.09;100.00
46836;BME280;32573;51.290;6.926;2023-01-15T02:52:13;98587.06;;;6.09;100.00
46836;BME280;32573;51.290;6.926;2023-01-15T02:54:46;98581.88;;;6.09;100.00
46836;BME280;32573;51.290;6.926;2023-01-15T02:57:17;98594.88;;;6.11;100.00
46836;BME280;32573;51.290;6.926;2023-01-15T02:59:56;98585.34;;;6.10;100.00
46836;BME280;32573;51.290;6.926;2023-01-15T03:02:29;98581.88;;;6.09;100.00
46836;BME280;32573;51.290;6.926;2023-01-15T03:05:04;98592.28;;;6.09;100.00
46836;BME280;32573;51.290;6.926;2023-01-15T03:07:37;98587.94;;;6.10;100.00
46836;BME280;32573;51.290;6.926;2023-01-15T03:10:10;98583.63;;;6.10;100.00
46836;BME280;32573;51.290;6.926;2023-01-15T03:12:43;98572.34;;;6.10;100.00
46836;BME280;32573;51.290;6.926;2023-01-15T03:16:06;98584.47;;;6.09;100.00
46836;BME280;32573;51.290;6.926;2023-01-15T03:18:58;98574.91;;;6.08;100.00
46836;BME280;32573;51.290;6.926;2023-01-15T03:21:38;98573.19;;;6.07;100.00
46836;BME280;32573;51.290;6.926;2023-01-15T03:24:14;98585.31;;;6.08;100.00
46836;BME280;32573;51.290;6.926;2023-01-15T03:26:45;98584.44;;;6.08;100.00
46836;BME280;32573;51.290;6.926;2023-01-15T03:29:14;98587.00;;;6.06;100.00
46836;BME280;32573;51.290;6.926;2023-01-15T03:31:44;98584.38;;;6.06;100.00
46836;BME280;32573;51.290;6.926;2023-01-15T03:34:13;98567.91;;;6.04;100.00
46836;BME280;32573;51.290;6.926;2023-01-15T03:36:42;98554.94;;;6.05;100.00
46836;BME280;32573;51.290;6.926;2023-01-15T03:39:11;98559.28;;;6.05;100.00
46836;BME280;32573;51.290;6.926;2023-01-15T03:42:08;98555.81;;;6.06;100.00
46836;BME280;32573;51.290;6.926;2023-01-15T03:44:49;98538.50;;;6.05;100.00
46836;BME280;32573;51.290;6.926;2023-01-15T03:47:29;98548.03;;;6.06;100.00
46836;BME280;32573;51.290;6.926;2023-01-15T03:50:04;98545.44;;;6.06;100.00
46836;BME280;32573;51.290;6.926;2023-01-15T03:52:45;98562.75;;;6.05;100.00
46836;BME280;32573;51.290;6.926;2023-01-15T03:55:21;98550.63;;;6.06;100.00
46836;BME280;32573;51.290;6.926;2023-01-15T03:58:04;98562.75;;;6.05;100.00
46836;BME280;32573;51.290;6.926;2023-01-15T04:00:42;98563.59;;;6.04;100.00
46836;BME280;32573;51.290;6.926;2023-01-15T04:03:17;98567.91;;;6.04;100.00
46836;BME280;32573;51.290;6.926;2023-01-15T04:05:46;98567.91;;;6.04;100.00
46836;BME280;32573;51.290;6.926;2023-01-15T04:08:18;98567.91;;;6.04;100.00
46836;BME280;32573;51.290;6.926;2023-01-15T04:10:50;98561.00;;;6.04;100.00
46836;BME280;32573;51.290;6.926;2023-01-15T04:13:20;98567.91;;;6.04;100.00
46836;BME280;32573;51.290;6.926;2023-01-15T04:15:51;98563.59;;;6.04;100.00
46836;BME280;32573;51.290;6.926;2023-01-15T04:18:21;98560.09;;;6.04;100.00
46836;BME280;32573;51.290;6.926;2023-01-15T04:20:50;98554.09;;;6.05;100.00
46836;BME280;32573;51.290;6.926;2023-01-15T04:23:20;98557.50;;;6.04;100.00
46836;BME280;32573;51.290;6.926;2023-01-15T04:25:49;98565.28;;;6.04;100.00
46836;BME280;32573;51.290;6.926;2023-01-15T04:28:17;98578.28;;;6.04;100.00
46836;BME280;32573;51.290;6.926;2023-01-15T04:30:46;98573.09;;;6.04;100.00
46836;BME280;32573;51.290;6.926;2023-01-15T04:33:14;98568.78;;;6.04;100.00
46836;BME280;32573;51.290;6.926;2023-01-15T04:35:44;98587.81;;;6.03;100.00
46836;BME280;32573;51.290;6.926;2023-01-15T04:38:16;98590.44;;;6.05;100.00
46836;BME280;32573;51.290;6.926;2023-01-15T04:40:45;98580.94;;;6.05;100.00
46836;BME280;32573;51.290;6.926;2023-01-15T04:43:31;98575.72;;;6.05;100.00
46836;BME280;32573;51.290;6.926;2023-01-15T04:46:22;98577.47;;;6.05;100.00
46836;BME280;32573;51.290;6.926;2023-01-15T04:48:50;98570.53;;;6.05;100.00
46836;BME280;32573;51.290;6.926;2023-01-15T04:51:20;98560.16;;;6.05;100.00
46836;BME280;32573;51.290;6.926;2023-01-15T04:53:48;98563.59;;;6.04;100.00
46836;BME280;32573;51.290;6.926;2023-01-15T04:56:17;98559.28;;;6.05;100.00
46836;BME280;32573;51.290;6.926;2023-01-15T04:58:45;98574.00;;;6.04;100.00
46836;BME280;32573;51.290;6.926;2023-01-15T05:01:16;98564.47;;;6.05;100.00
46836;BME280;32573;51.290;6.926;2023-01-15T05:03:45;98567.06;;;6.05;100.00
46836;BME280;32573;51.290;6.926;2023-01-15T05:06:14;98579.19;;;6.06;100.00
46836;BME280;32573;51.290;6.926;2023-01-15T05:08:45;98569.66;;;6.05;100.00
46836;BME280;32573;51.290;6.926;2023-01-15T05:11:13;98566.22;;;6.06;100.00
46836;BME280;32573;51.290;6.926;2023-01-15T05:13:42;98564.47;;;6.05;100.00
46836;BME280;32573;51.290;6.926;2023-01-15T05:16:12;98562.78;;;6.07;100.00
46836;BME280;32573;51.290;6.926;2023-01-15T05:18:42;98570.53;;;6.05;100.00
46836;BME280;32573;51.290;6.926;2023-01-15T05:21:15;98571.41;;;6.06;100.00
46836;BME280;32573;51.290;6.926;2023-01-15T05:23:48;98592.22;;;6.08;100.00
46836;BME280;32573;51.290;6.926;2023-01-15T05:26:17;98587.03;;;6.08;100.00
46836;BME280;32573;51.290;6.926;2023-01-15T05:28:47;98575.78;;;6.07;100.00
46836;BME280;32573;51.290;6.926;2023-01-15T05:31:17;98583.56;;;6.07;100.00
46836;BME280;32573;51.290;6.926;2023-01-15T05:33:47;98590.50;;;6.08;100.00
46836;BME280;32573;51.290;6.926;2023-01-15T05:36:17;98587.06;;;6.09;100.00
46836;BME280;32573;51.290;6.926;2023-01-15T05:38:48;98580.97;;;6.09;100.00
46836;BME280;32573;51.290;6.926;2023-01-15T05:41:18;98565.41;;;6.09;100.00
46836;BME280;32573;51.290;6.926;2023-01-15T05:44:07;98576.69;;;6.09;100.00
46836;BME280;32573;51.290;6.926;2023-01-15T05:46:38;98574.97;;;6.10;100.00
46836;BME280;32573;51.290;6.926;2023-01-15T05:49:08;98566.28;;;6.09;100.00
46836;BME280;32573;51.290;6.926;2023-01-15T05:51:38;98565.41;;;6.09;100.00
46836;BME280;32573;51.290;6.926;2023-01-15T05:54:11;98580.16;;;6.10;100.00
46836;BME280;32573;51.290;6.926;2023-01-15T05:56:40;98571.50;;;6.09;100.00
46836;BME280;32573;51.290;6.926;2023-01-15T05:59:09;98573.22;;;6.10;100.00
46836;BME280;32573;51.290;6.926;2023-01-15T06:01:38;98580.16;;;6.11;100.00
46836;BME280;32573;51.290;6.926;2023-01-15T06:04:06;98581.94;;;6.12;100.00
46836;BME280;32573;51.290;6.926;2023-01-15T06:06:35;98578.47;;;6.13;100.00
46836;BME280;32573;51.290;6.926;2023-01-15T06:09:03;98579.34;;;6.12;100.00
46836;BME280;32573;51.290;6.926;2023-01-15T06:11:33;98586.25;;;6.13;100.00
46836;BME280;32573;51.290;6.926;2023-01-15T06:14:02;98595.81;;;6.14;100.00
46836;BME280;32573;51.290;6.926;2023-01-15T06:16:30;98591.50;;;6.15;100.00
46836;BME280;32573;51.290;6.926;2023-01-15T06:18:59;98594.13;;;6.16;100.00
46836;BME280;32573;51.290;6.926;2023-01-15T06:21:31;98599.31;;;6.16;100.00
46836;BME280;32573;51.290;6.926;2023-01-15T06:23:59;98608.81;;;6.14;100.00
46836;BME280;32573;51.290;6.926;2023-01-15T06:26:28;98594.06;;;6.13;100.00
46836;BME280;32573;51.290;6.926;2023-01-15T06:28:58;98613.16;;;6.15;100.00
46836;BME280;32573;51.290;6.926;2023-01-15T06:31:27;98612.28;;;6.15;100.00
46836;BME280;32573;51.290;6.926;2023-01-15T06:33:55;98604.50;;;6.16;100.00
46836;BME280;32573;51.290;6.926;2023-01-15T06:36:25;98604.50;;;6.16;100.00
46836;BME280;32573;51.290;6.926;2023-01-15T06:38:54;98601.94;;;6.18;100.00
46836;BME280;32573;51.290;6.926;2023-01-15T06:41:23;98599.41;;;6.19;100.00
46836;BME280;32573;51.290;6.926;2023-01-15T06:44:12;98602.81;;;6.18;100.00
46836;BME280;32573;51.290;6.926;2023-01-15T06:47:00;98600.22;;;6.18;100.00
46836;BME280;32573;51.290;6.926;2023-01-15T06:49:51;98607.19;;;6.19;100.00
46836;BME280;32573;51.290;6.926;2023-01-15T06:52:20;98613.22;;;6.18;100.00
46836;BME280;32573;51.290;6.926;2023-01-15T06:54:49;98609.75;;;6.18;100.00
46836;BME280;32573;51.290;6.926;2023-01-15T06:57:17;98608.81;;;6.16;100.00
46836;BME280;32573;51.290;6.926;2023-01-15T06:59:48;98604.50;;;6.16;100.00
46836;BME280;32573;51.290;6.926;2023-01-15T07:02:16;98612.28;;;6.16;100.00
46836;BME280;32573;51.290;6.926;2023-01-15T07:04:45;98610.56;;;6.15;100.00
46836;BME280;32573;51.290;6.926;2023-01-15T07:07:17;98620.94;;;6.15;100.00
46836;BME280;32573;51.290;6.926;2023-01-15T07:09:47;98621.81;;;6.14;100.00
46836;BME280;32573;51.290;6.926;2023-01-15T07:12:16;98611.41;;;6.14;100.00
46836;BME280;32573;51.290;6.926;2023-01-15T07:14:46;98616.53;;;6.11;100.00
46836;BME280;32573;51.290;6.926;2023-01-15T07:17:15;98597.50;;;6.12;100.00
46836;BME280;32573;51.290;6.926;2023-01-15T07:19:44;98601.84;;;6.12;100.00
46836;BME280;32573;51.290;6.926;2023-01-15T07:22:13;98619.09;;;6.10;100.00
46836;BME280;32573;51.290;6.926;2023-01-15T07:24:41;98634.69;;;6.10;100.00
46836;BME280;32573;51.290;6.926;2023-01-15T07:27:10;98637.25;;;6.08;100.00
46836;BME280;32573;51.290;6.926;2023-01-15T07:29:38;98632.91;;;6.09;100.00
46836;BME280;32573;51.290;6.926;2023-01-15T07:32:08;98634.66;;;6.08;100.00
46836;BME280;32573;51.290;6.926;2023-01-15T07:34:37;98630.31;;;6.07;100.00
46836;BME280;32573;51.290;6.926;2023-01-15T07:37:06;98638.09;;;6.07;100.00
46836;BME280;32573;51.290;6.926;2023-01-15T07:39:34;98645.91;;;6.09;100.00
46836;BME280;32573;51.290;6.926;2023-01-15T07:42:03;98645.03;;;6.08;100.00
46836;BME280;32573;51.290;6.926;2023-01-15T07:44:49;98655.44;;;6.08;100.00
46836;BME280;32573;51.290;6.926;2023-01-15T07:47:38;98651.09;;;6.07;100.00
46836;BME280;32573;51.290;6.926;2023-01-15T07:50:24;98645.91;;;6.07;100.00
46836;BME280;32573;51.290;6.926;2023-01-15T07:52:52;98652.78;;;6.05;100.00
46836;BME280;32573;51.290;6.926;2023-01-15T07:55:21;98649.31;;;6.06;100.00
46836;BME280;32573;51.290;6.926;2023-01-15T07:57:50;98649.31;;;6.06;100.00
46836;BME280;32573;51.290;6.926;2023-01-15T08:00:22;98652.72;;;6.03;100.00
46836;BME280;32573;51.290;6.926;2023-01-15T08:02:52;98656.19;;;6.04;100.00
46836;BME280;32573;51.290;6.926;2023-01-15T08:05:20;98670.94;;;6.05;100.00
46836;BME280;32573;51.290;6.926;2023-01-15T08:07:49;98661.38;;;6.04;100.00
46836;BME280;32573;51.290;6.926;2023-01-15T08:10:17;98669.22;;;6.05;100.00
46836;BME280;32573;51.290;6.926;2023-01-15T08:12:48;98659.72;;;6.06;100.00
46836;BME280;32573;51.290;6.926;2023-01-15T08:15:39;98674.41;;;6.05;100.00
46836;BME280;32573;51.290;6.926;2023-01-15T08:18:11;98677.06;;;6.07;100.00
46836;BME280;32573;51.290;6.926;2023-01-15T08:20:40;98685.75;;;6.09;100.00
46836;BME280;32573;51.290;6.926;2023-01-15T08:23:08;98696.16;;;6.09;100.00
46836;BME280;32573;51.290;6.926;2023-01-15T08:25:37;98706.53;;;6.09;100.00
46836;BME280;32573;51.290;6.926;2023-01-15T08:28:05;98702.22;;;6.10;100.00
46836;BME280;32573;51.290;6.926;2023-01-15T08:30:34;98692.66;;;6.07;100.00
46836;BME280;32573;51.290;6.926;2023-01-15T08:33:03;98709.97;;;6.08;100.00
46836;BME280;32573;51.290;6.926;2023-01-15T08:35:36;98698.72;;;6.08;100.00
46836;BME280;32573;51.290;6.926;2023-01-15T08:38:04;98713.41;;;6.07;100.00
46836;BME280;32573;51.290;6.926;2023-01-15T08:40:33;98709.94;;;6.07;100.00
46836;BME280;32573;51.290;6.926;2023-01-15T08:43:23;98728.97;;;6.05;100.00
46836;BME280;32573;51.290;6.926;2023-01-15T08:45:51;98724.56;;;6.03;100.00
46836;BME280;32573;51.290;6.926;2023-01-15T08:48:20;98712.41;;;6.00;100.00
46836;BME280;32573;51.290;6.926;2023-01-15T08:50:50;98725.34;;;5.99;100.00
46836;BME280;32573;51.290;6.926;2023-01-15T08:53:19;98722.75;;;5.99;100.00
46836;BME280;32573;51.290;6.926;2023-01-15T08:55:47;98720.94;;;5.96;100.00
46836;BME280;32573;51.290;6.926;2023-01-15T08:58:16;98716.63;;;5.95;100.00
46836;BME280;32573;51.290;6.926;2023-01-15T09:00:45;98713.06;;;5.92;100.00
46836;BME280;32573;51.290;6.926;2023-01-15T09:03:15;98719.91;;;5.90;100.00
46836;BME280;32573;51.290;6.926;2023-01-15T09:05:43;98723.28;;;5.86;100.00
46836;BME280;32573;51.290;6.926;2023-01-15T09:08:13;98737.03;;;5.81;100.00
46836;BME280;32573;51.290;6.926;2023-01-15T09:10:42;98736.13;;;5.79;100.00
46836;BME280;32573;51.290;6.926;2023-01-15T09:13:10;98740.41;;;5.77;100.00
46836;BME280;32573;51.290;6.926;2023-01-15T09:15:39;98738.63;;;5.75;100.00
46836;BME280;32573;51.290;6.926;2023-01-15T09:18:08;98742.00;;;5.72;100.00
46836;BME280;32573;51.290;6.926;2023-01-15T09:20:38;98736.78;;;5.71;100.00
46836;BME280;32573;51.290;6.926;2023-01-15T09:23:07;98745.34;;;5.67;100.00
46836;BME280;32573;51.290;6.926;2023-01-15T09:25:37;98730.56;;;5.64;100.00
46836;BME280;32573;51.290;6.926;2023-01-15T09:28:06;98733.94;;;5.61;100.00
46836;BME280;32573;51.290;6.926;2023-01-15T09:30:34;98728.75;;;5.60;100.00
46836;BME280;32573;51.290;6.926;2023-01-15T09:33:03;98730.47;;;5.61;100.00
46836;BME280;32573;51.290;6.926;2023-01-15T09:35:32;98722.69;;;5.61;100.00
46836;BME280;32573;51.290;6.926;2023-01-15T09:38:01;98717.56;;;5.62;100.00
46836;BME280;32573;51.290;6.926;2023-01-15T09:40:45;98718.53;;;5.68;100.00
46836;BME280;32573;51.290;6.926;2023-01-15T09:43:32;98723.84;;;5.72;100.00
46836;BME280;32573;51.290;6.926;2023-01-15T09:46:19;98714.38;;;5.74;100.00
46836;BME280;32573;51.290;6.926;2023-01-15T09:48:56;98717.00;;;5.76;100.00
46836;BME280;32573;51.290;6.926;2023-01-15T09:51:35;98721.38;;;5.78;100.00
46836;BME280;32573;51.290;6.926;2023-01-15T09:54:20;98704.06;;;5.79;100.00
46836;BME280;32573;51.290;6.926;2023-01-15T09:56:53;98710.19;;;5.79;100.00
46836;BME280;32573;51.290;6.926;2023-01-15T09:59:28;98721.53;;;5.84;100.00
46836;BME280;32573;51.290;6.926;2023-01-15T10:02:11;98718.16;;;5.89;100.00
46836;BME280;32573;51.290;6.926;2023-01-15T10:04:48;98729.56;;;5.94;100.00
46836;BME280;32573;51.290;6.926;2023-01-15T10:07:23;98721.00;;;5.98;100.00
46836;BME280;32573;51.290;6.926;2023-01-15T10:09:58;98724.53;;;6.01;100.00
46836;BME280;32573;51.290;6.926;2023-01-15T10:12:31;98722.84;;;6.03;100.00
46836;BME280;32573;51.290;6.926;2023-01-15T10:15:14;98720.28;;;6.05;100.00
46836;BME280;32573;51.290;6.926;2023-01-15T10:17:46;98722.03;;;6.06;100.00
46836;BME280;32573;51.290;6.926;2023-01-15T10:20:16;98732.56;;;6.12;100.00
46836;BME280;32573;51.290;6.926;2023-01-15T10:23:04;98752.66;;;6.19;100.00
46836;BME280;32573;51.290;6.926;2023-01-15T10:25:49;98763.22;;;6.27;100.00
46836;BME280;32573;51.290;6.926;2023-01-15T10:28:24;98745.03;;;6.29;100.00
46836;BME280;32573;51.290;6.926;2023-01-15T10:30:54;98749.41;;;6.30;100.00
46836;BME280;32573;51.290;6.926;2023-01-15T10:33:38;98757.22;;;6.30;100.00
46836;BME280;32573;51.290;6.926;2023-01-15T10:36:16;98775.41;;;6.31;100.00
46836;BME280;32573;51.290;6.926;2023-01-15T10:38:53;98759.00;;;6.34;100.00
46836;BME280;32573;51.290;6.926;2023-01-15T10:41:31;98750.44;;;6.38;100.00
46836;BME280;32573;51.290;6.926;2023-01-15T10:44:11;98745.25;;;6.38;100.00
46836;BME280;32573;51.290;6.926;2023-01-15T10:46:48;98751.31;;;6.38;100.00
46836;BME280;32573;51.290;6.926;2023-01-15T10:49:27;98762.66;;;6.42;100.00
46836;BME280;32573;51.290;6.926;2023-01-15T10:52:02;98741.91;;;6.43;100.00
46836;BME280;32573;51.290;6.926;2023-01-15T10:54:37;98738.47;;;6.46;100.00
46836;BME280;32573;51.290;6.926;2023-01-15T10:57:09;98766.25;;;6.47;100.00
46836;BME280;32573;51.290;6.926;2023-01-15T10:59:45;98755.03;;;6.50;100.00
46836;BME280;32573;51.290;6.926;2023-01-15T11:02:23;98751.63;;;6.52;100.00
46836;BME280;32573;51.290;6.926;2023-01-15T11:05:11;98760.34;;;6.54;100.00
46836;BME280;32573;51.290;6.926;2023-01-15T11:07:48;98778.59;;;6.57;100.00
46836;BME280;32573;51.290;6.926;2023-01-15T11:10:38;98770.78;;;6.59;100.00
46836;BME280;32573;51.290;6.926;2023-01-15T11:13:17;98750.91;;;6.59;100.00
46836;BME280;32573;51.290;6.926;2023-01-15T11:16:12;98764.72;;;6.58;100.00
46836;BME280;32573;51.290;6.926;2023-01-15T11:19:09;98762.19;;;6.61;100.00
46836;BME280;32573;51.290;6.926;2023-01-15T11:22:05;98770.91;;;6.63;100.00
46836;BME280;32573;51.290;6.926;2023-01-15T11:24:45;98767.47;;;6.64;100.00
46836;BME280;32573;51.290;6.926;2023-01-15T11:27:18;98777.06;;;6.68;100.00
46836;BME280;32573;51.290;6.926;2023-01-15T11:29:51;98763.25;;;6.69;100.00
46836;BME280;32573;51.290;6.926;2023-01-15T11:32:28;98761.47;;;6.68;100.00
46836;BME280;32573;51.290;6.926;2023-01-15T11:34:58;98754.59;;;6.70;100.00
46836;BME280;32573;51.290;6.926;2023-01-15T11:37:30;98747.75;;;6.76;100.00
46836;BME280;32573;51.290;6.926;2023-01-15T11:40:00;98751.22;;;6.76;100.00
46836;BME280;32573;51.290;6.926;2023-01-15T11:42:44;98765.13;;;6.77;100.00
46836;BME280;32573;51.290;6.926;2023-01-15T11:45:31;98740.75;;;6.72;100.00
46836;BME280;32573;51.290;6.926;2023-01-15T11:48:20;98759.78;;;6.70;100.00
46836;BME280;32573;51.290;6.926;2023-01-15T11:51:08;98742.44;;;6.69;100.00
46836;BME280;32573;51.290;6.926;2023-01-15T11:53:42;98742.47;;;6.71;100.00
46836;BME280;32573;51.290;6.926;2023-01-15T11:56:14;98753.75;;;6.72;100.00
46836;BME280;32573;51.290;6.926;2023-01-15T11:58:45;98766.75;;;6.72;100.00
46836;BME280;32573;51.290;6.926;2023-01-15T12:01:20;98762.38;;;6.69;100.00
46836;BME280;32573;51.290;6.926;2023-01-15T12:03:53;98754.56;;;6.69;100.00
46836;BME280;32573;51.290;6.926;2023-01-15T12:06:24;98749.38;;;6.69;100.00
46836;BME280;32573;51.290;6.926;2023-01-15T12:08:58;98747.66;;;6.69;100.00
46836;BME280;32573;51.290;6.926;2023-01-15T12:11:49;98751.06;;;6.68;100.00
46836;BME280;32573;51.290;6.926;2023-01-15T12:14:35;98758.88;;;6.68;100.00
46836;BME280;32573;51.290;6.926;2023-01-15T12:17:15;98747.66;;;6.69;100.00
46836;BME280;32573;51.290;6.926;2023-01-15T12:20:02;98744.13;;;6.67;100.00
46836;BME280;32573;51.290;6.926;2023-01-15T12:22:45;98760.50;;;6.63;100.00
46836;BME280;32573;51.290;6.926;2023-01-15T12:25:41;98753.53;;;6.61;100.00
46836;BME280;32573;51.290;6.926;2023-01-15T12:28:17;98742.25;;;6.60;100.00
46836;BME280;32573;51.290;6.926;2023-01-15T12:30:56;98731.84;;;6.60;100.00
46836;BME280;32573;51.290;6.926;2023-01-15T12:33:34;98741.38;;;6.60;100.00
46836;BME280;32573;51.290;6.926;2023-01-15T12:36:10;98726.69;;;6.62;100.00
46836;BME280;32573;51.290;6.926;2023-01-15T12:38:44;98745.81;;;6.65;100.00
46836;BME280;32573;51.290;6.926;2023-01-15T12:41:16;98727.63;;;6.65;100.00
46836;BME280;32573;51.290;6.926;2023-01-15T12:43:55;98732.88;;;6.68;100.00
46836;BME280;32573;51.290;6.926;2023-01-15T12:46:43;98719.97;;;6.72;100.00
46836;BME280;32573;51.290;6.926;2023-01-15T12:49:22;98716.50;;;6.73;100.00
46836;BME280;32573;51.290;6.926;2023-01-15T12:52:03;98711.31;;;6.73;100.00
46836;BME280;32573;51.290;6.926;2023-01-15T12:54:35;98703.53;;;6.74;100.00
46836;BME280;32573;51.290;6.926;2023-01-15T12:57:12;98720.00;;;6.75;100.00
46836;BME280;32573;51.290;6.926;2023-01-15T12:59:49;98720.88;;;6.75;100.00
46836;BME280;32573;51.290;6.926;2023-01-15T13:02:21;98740.00;;;6.77;100.00
46836;BME280;32573;51.290;6.926;2023-01-15T13:05:01;98710.53;;;6.78;100.00
46836;BME280;32573;51.290;6.926;2023-01-15T13:07:49;98725.31;;;6.81;100.00
46836;BME280;32573;51.290;6.926;2023-01-15T13:10:23;98746.13;;;6.81;100.00
46836;BME280;32573;51.290;6.926;2023-01-15T13:12:54;98741.81;;;6.83;100.00
46836;BME280;32573;51.290;6.926;2023-01-15T13:15:29;98737.50;;;6.83;100.00
46836;BME280;32573;51.290;6.926;2023-01-15T13:18:05;98740.09;;;6.82;100.00
46836;BME280;32573;51.290;6.926;2023-01-15T13:20:43;98734.03;;;6.83;100.00
46836;BME280;32573;51.290;6.926;2023-01-15T13:23:31;98734.03;;;6.83;100.00
46836;BME280;32573;51.290;6.926;2023-01-15T13:26:17;98731.38;;;6.81;100.00
46836;BME280;32573;51.290;6.926;2023-01-15T13:28:57;98748.72;;;6.81;100.00
46836;BME280;32573;51.290;6.926;2023-01-15T13:31:46;98747.84;;;6.80;100.00
46836;BME280;32573;51.290;6.926;2023-01-15T13:34:25;98760.84;;;6.80;100.00
46836;BME280;32573;51.290;6.926;2023-01-15T13:37:03;98760.00;;;6.81;100.00
46836;BME280;32573;51.290;6.926;2023-01-15T13:39:43;98745.28;;;6.82;100.00
46836;BME280;32573;51.290;6.926;2023-01-15T13:42:44;98754.84;;;6.83;100.00